sensor_id;sensor_type;location;lat;lon;timestamp;P1;durP1;ratioP1;P2;durP2;ratioP2
7719;SDS011;3902;49.474;8.616;2022-12-29T00:01:59;3.47;;;2.10;;
7719;SDS011;3902;49.474;8.616;2022-12-29T00:04:24;2.77;;;2.47;;
7719;SDS011;3902;49.474;8.616;2022-12-29T00:06:50;2.20;;;2.00;;
7719;SDS011;3902;49.474;8.616;2022-12-29T00:09:17;3.40;;;2.40;;
7719;SDS011;3902;49.474;8.616;2022-12-29T00:11:43;3.63;;;2.57;;
7719;SDS011;3902;49.474;8.616;2022-12-29T00:14:09;3.67;;;2.60;;
7719;SDS011;3902;49.474;8.616;2022-12-29T00:16:54;3.57;;;2.23;;
7719;SDS011;3902;49.474;8.616;2022-12-29T00:19:20;2.77;;;2.47;;
7719;SDS011;3902;49.474;8.616;2022-12-29T00:22:04;3.80;;;2.50;;
7719;SDS011;3902;49.474;8.616;2022-12-29T00:24:49;2.50;;;2.20;;
7719;SDS011;3902;49.474;8.616;2022-12-29T00:27:26;4.27;;;1.80;;
7719;SDS011;3902;49.474;8.616;2022-12-29T00:30:11;3.77;;;2.00;;
7719;SDS011;3902;49.474;8.616;2022-12-29T00:32:57;3.30;;;2.10;;
7719;SDS011;3902;49.474;8.616;2022-12-29T00:35:52;2.40;;;2.00;;
7719;SDS011;3902;49.474;8.616;2022-12-29T00:38:20;2.60;;;2.07;;
7719;SDS011;3902;49.474;8.616;2022-12-29T00:41:05;2.30;;;2.07;;
7719;SDS011;3902;49.474;8.616;2022-12-29T00:43:49;2.43;;;2.10;;
7719;SDS011;3902;49.474;8.616;2022-12-29T00:46:29;1.87;;;1.77;;
7719;SDS011;3902;49.474;8.616;2022-12-29T00:48:55;2.23;;;1.90;;
7719;SDS011;3902;49.474;8.616;2022-12-29T00:51:40;3.73;;;2.20;;
7719;SDS011;3902;49.474;8.616;2022-12-29T00:54:05;2.23;;;1.83;;
7719;SDS011;3902;49.474;8.616;2022-12-29T00:56:31;2.30;;;2.10;;
7719;SDS011;3902;49.474;8.616;2022-12-29T00:59:03;2.10;;;1.90;;
7719;SDS011;3902;49.474;8.616;2022-12-29T01:01:30;4.50;;;2.10;;
7719;SDS011;3902;49.474;8.616;2022-12-29T01:03:56;2.37;;;2.17;;
7719;SDS011;3902;49.474;8.616;2022-12-29T01:06:21;2.07;;;1.87;;
7719;SDS011;3902;49.474;8.616;2022-12-29T01:08:48;2.50;;;1.97;;
7719;SDS011;3902;49.474;8.616;2022-12-29T01:11:33;2.60;;;2.40;;
7719;SDS011;3902;49.474;8.616;2022-12-29T01:13:59;2.17;;;1.83;;
7719;SDS011;3902;49.474;8.616;2022-12-29T01:16:24;1.80;;;1.70;;
7719;SDS011;3902;49.474;8.616;2022-12-29T01:18:50;2.43;;;2.23;;
7719;SDS011;3902;49.474;8.616;2022-12-29T01:21:15;2.30;;;2.10;;
7719;SDS011;3902;49.474;8.616;2022-12-29T01:23:41;3.67;;;2.43;;
7719;SDS011;3902;49.474;8.616;2022-12-29T01:26:10;2.10;;;1.90;;
7719;SDS011;3902;49.474;8.616;2022-12-29T01:28:37;4.37;;;2.20;;
7719;SDS011;3902;49.474;8.616;2022-12-29T01:31:05;2.37;;;1.80;;
7719;SDS011;3902;49.474;8.616;2022-12-29T01:33:31;4.83;;;2.33;;
7719;SDS011;3902;49.474;8.616;2022-12-29T01:36:00;4.17;;;2.40;;
7719;SDS011;3902;49.474;8.616;2022-12-29T01:38:26;2.87;;;1.97;;
7719;SDS011;3902;49.474;8.616;2022-12-29T01:40:52;2.70;;;2.07;;
7719;SDS011;3902;49.474;8.616;2022-12-29T01:43:17;3.90;;;2.40;;
7719;SDS011;3902;49.474;8.616;2022-12-29T01:45:50;2.03;;;1.73;;
7719;SDS011;3902;49.474;8.616;2022-12-29T01:48:18;4.67;;;2.40;;
7719;SDS011;3902;49.474;8.616;2022-12-29T01:50:51;2.10;;;1.50;;
7719;SDS011;3902;49.474;8.616;2022-12-29T01:53:19;2.70;;;1.80;;
7719;SDS011;3902;49.474;8.616;2022-12-29T01:55:52;2.73;;;2.00;;
7719;SDS011;3902;49.474;8.616;2022-12-29T01:58:24;5.53;;;2.13;;
7719;SDS011;3902;49.474;8.616;2022-12-29T02:00:54;3.37;;;1.60;;
7719;SDS011;3902;49.474;8.616;2022-12-29T02:03:20;1.50;;;1.33;;
7719;SDS011;3902;49.474;8.616;2022-12-29T02:05:53;5.47;;;2.00;;
7719;SDS011;3902;49.474;8.616;2022-12-29T02:08:24;1.73;;;1.63;;
7719;SDS011;3902;49.474;8.616;2022-12-29T02:10:53;2.30;;;1.73;;
7719;SDS011;3902;49.474;8.616;2022-12-29T02:13:19;5.40;;;1.47;;
7719;SDS011;3902;49.474;8.616;2022-12-29T02:20:50;2.27;;;1.70;;
7719;SDS011;3902;49.474;8.616;2022-12-29T02:23:39;2.83;;;1.63;;
7719;SDS011;3902;49.474;8.616;2022-12-29T02:26:42;2.30;;;1.83;;
7719;SDS011;3902;49.474;8.616;2022-12-29T02:32:08;2.37;;;1.70;;
7719;SDS011;3902;49.474;8.616;2022-12-29T02:34:52;3.80;;;2.13;;
7719;SDS011;3902;49.474;8.616;2022-12-29T02:37:40;2.33;;;1.80;;
7719;SDS011;3902;49.474;8.616;2022-12-29T02:40:40;2.80;;;1.77;;
7719;SDS011;3902;49.474;8.616;2022-12-29T02:43:18;2.47;;;1.77;;
7719;SDS011;3902;49.474;8.616;2022-12-29T02:45:57;2.57;;;1.70;;
7719;SDS011;3902;49.474;8.616;2022-12-29T02:48:41;2.63;;;1.50;;
7719;SDS011;3902;49.474;8.616;2022-12-29T02:51:25;2.10;;;1.37;;
7719;SDS011;3902;49.474;8.616;2022-12-29T02:54:00;2.30;;;1.60;;
7719;SDS011;3902;49.474;8.616;2022-12-29T02:56:44;4.20;;;1.53;;
7719;SDS011;3902;49.474;8.616;2022-12-29T02:59:10;2.90;;;1.80;;
7719;SDS011;3902;49.474;8.616;2022-12-29T03:01:52;2.07;;;1.80;;
7719;SDS011;3902;49.474;8.616;2022-12-29T03:13:06;3.10;;;1.63;;
7719;SDS011;3902;49.474;8.616;2022-12-29T03:16:05;1.57;;;1.40;;
7719;SDS011;3902;49.474;8.616;2022-12-29T03:18:56;1.70;;;1.40;;
7719;SDS011;3902;49.474;8.616;2022-12-29T03:24:22;2.77;;;1.70;;
7719;SDS011;3902;49.474;8.616;2022-12-29T03:26:53;2.23;;;1.70;;
7719;SDS011;3902;49.474;8.616;2022-12-29T03:29:23;3.50;;;1.73;;
7719;SDS011;3902;49.474;8.616;2022-12-29T03:31:51;1.40;;;1.30;;
7719;SDS011;3902;49.474;8.616;2022-12-29T03:34:18;2.70;;;1.87;;
7719;SDS011;3902;49.474;8.616;2022-12-29T03:36:52;2.43;;;1.80;;
7719;SDS011;3902;49.474;8.616;2022-12-29T03:39:21;2.20;;;1.60;;
7719;SDS011;3902;49.474;8.616;2022-12-29T03:41:49;1.90;;;1.70;;
7719;SDS011;3902;49.474;8.616;2022-12-29T03:44:18;2.03;;;1.60;;
7719;SDS011;3902;49.474;8.616;2022-12-29T03:46:43;2.10;;;1.47;;
7719;SDS011;3902;49.474;8.616;2022-12-29T03:49:09;2.30;;;1.80;;
7719;SDS011;3902;49.474;8.616;2022-12-29T03:51:34;2.00;;;1.67;;
7719;SDS011;3902;49.474;8.616;2022-12-29T03:54:00;2.57;;;1.50;;
7719;SDS011;3902;49.474;8.616;2022-12-29T03:56:25;1.97;;;1.60;;
7719;SDS011;3902;49.474;8.616;2022-12-29T03:58:51;4.20;;;1.97;;
7719;SDS011;3902;49.474;8.616;2022-12-29T04:01:16;1.70;;;1.60;;
7719;SDS011;3902;49.474;8.616;2022-12-29T04:03:42;2.53;;;1.50;;
7719;SDS011;3902;49.474;8.616;2022-12-29T04:06:07;2.73;;;1.43;;
7719;SDS011;3902;49.474;8.616;2022-12-29T04:08:33;2.23;;;1.60;;
7719;SDS011;3902;49.474;8.616;2022-12-29T04:10:58;1.73;;;1.57;;
7719;SDS011;3902;49.474;8.616;2022-12-29T04:13:24;2.73;;;2.00;;
7719;SDS011;3902;49.474;8.616;2022-12-29T04:15:49;1.60;;;1.50;;
7719;SDS011;3902;49.474;8.616;2022-12-29T04:18:15;1.53;;;1.40;;
7719;SDS011;3902;49.474;8.616;2022-12-29T04:20:41;1.43;;;1.33;;
7719;SDS011;3902;49.474;8.616;2022-12-29T04:23:25;1.93;;;1.40;;
7719;SDS011;3902;49.474;8.616;2022-12-29T04:25:55;2.30;;;1.70;;
7719;SDS011;3902;49.474;8.616;2022-12-29T04:28:21;1.50;;;1.40;;
7719;SDS011;3902;49.474;8.616;2022-12-29T04:30:46;1.70;;;1.60;;
7719;SDS011;3902;49.474;8.616;2022-12-29T04:33:12;1.93;;;1.37;;
7719;SDS011;3902;49.474;8.616;2022-12-29T04:35:38;1.43;;;1.30;;
7719;SDS011;3902;49.474;8.616;2022-12-29T04:38:03;1.63;;;1.40;;
7719;SDS011;3902;49.474;8.616;2022-12-29T04:40:29;1.60;;;1.50;;
7719;SDS011;3902;49.474;8.616;2022-12-29T04:42:55;1.97;;;1.50;;
7719;SDS011;3902;49.474;8.616;2022-12-29T04:45:20;2.27;;;1.60;;
7719;SDS011;3902;49.474;8.616;2022-12-29T04:47:46;2.30;;;1.70;;
7719;SDS011;3902;49.474;8.616;2022-12-29T04:50:12;1.77;;;1.60;;
7719;SDS011;3902;49.474;8.616;2022-12-29T04:52:38;2.90;;;1.77;;
7719;SDS011;3902;49.474;8.616;2022-12-29T04:55:04;2.10;;;1.30;;
7719;SDS011;3902;49.474;8.616;2022-12-29T04:57:30;2.20;;;1.60;;
7719;SDS011;3902;49.474;8.616;2022-12-29T04:59:55;1.80;;;1.50;;
7719;SDS011;3902;49.474;8.616;2022-12-29T05:02:21;2.83;;;1.70;;
7719;SDS011;3902;49.474;8.616;2022-12-29T05:04:46;4.13;;;2.00;;
7719;SDS011;3902;49.474;8.616;2022-12-29T05:07:12;3.13;;;1.70;;
7719;SDS011;3902;49.474;8.616;2022-12-29T05:09:38;1.50;;;1.33;;
7719;SDS011;3902;49.474;8.616;2022-12-29T05:12:03;1.77;;;1.40;;
7719;SDS011;3902;49.474;8.616;2022-12-29T05:14:30;2.10;;;1.57;;
7719;SDS011;3902;49.474;8.616;2022-12-29T05:16:55;1.40;;;1.30;;
7719;SDS011;3902;49.474;8.616;2022-12-29T05:19:21;2.13;;;1.50;;
7719;SDS011;3902;49.474;8.616;2022-12-29T05:21:46;1.77;;;1.50;;
7719;SDS011;3902;49.474;8.616;2022-12-29T05:24:12;2.37;;;1.43;;
7719;SDS011;3902;49.474;8.616;2022-12-29T05:26:38;2.57;;;1.60;;
7719;SDS011;3902;49.474;8.616;2022-12-29T05:29:03;1.50;;;1.40;;
7719;SDS011;3902;49.474;8.616;2022-12-29T05:31:29;1.70;;;1.60;;
7719;SDS011;3902;49.474;8.616;2022-12-29T05:33:55;3.03;;;1.37;;
7719;SDS011;3902;49.474;8.616;2022-12-29T05:36:21;2.47;;;1.93;;
7719;SDS011;3902;49.474;8.616;2022-12-29T05:38:46;2.13;;;1.60;;
7719;SDS011;3902;49.474;8.616;2022-12-29T05:41:12;3.37;;;1.80;;
7719;SDS011;3902;49.474;8.616;2022-12-29T05:43:38;2.87;;;1.70;;
7719;SDS011;3902;49.474;8.616;2022-12-29T05:46:03;2.00;;;1.30;;
7719;SDS011;3902;49.474;8.616;2022-12-29T05:48:29;2.90;;;1.60;;
7719;SDS011;3902;49.474;8.616;2022-12-29T05:50:55;3.23;;;1.70;;
7719;SDS011;3902;49.474;8.616;2022-12-29T05:53:21;1.73;;;1.60;;
7719;SDS011;3902;49.474;8.616;2022-12-29T05:55:46;1.93;;;1.73;;
7719;SDS011;3902;49.474;8.616;2022-12-29T05:58:13;2.00;;;1.80;;
7719;SDS011;3902;49.474;8.616;2022-12-29T06:00:39;3.13;;;2.00;;
7719;SDS011;3902;49.474;8.616;2022-12-29T06:03:05;1.67;;;1.50;;
7719;SDS011;3902;49.474;8.616;2022-12-29T06:05:30;2.30;;;1.50;;
7719;SDS011;3902;49.474;8.616;2022-12-29T06:07:56;1.90;;;1.70;;
7719;SDS011;3902;49.474;8.616;2022-12-29T06:10:22;2.30;;;1.70;;
7719;SDS011;3902;49.474;8.616;2022-12-29T06:12:47;1.87;;;1.57;;
7719;SDS011;3902;49.474;8.616;2022-12-29T06:15:13;3.47;;;1.60;;
7719;SDS011;3902;49.474;8.616;2022-12-29T06:17:39;2.03;;;1.57;;
7719;SDS011;3902;49.474;8.616;2022-12-29T06:20:06;2.17;;;1.60;;
7719;SDS011;3902;49.474;8.616;2022-12-29T06:22:32;2.10;;;1.60;;
7719;SDS011;3902;49.474;8.616;2022-12-29T06:24:58;1.87;;;1.30;;
7719;SDS011;3902;49.474;8.616;2022-12-29T06:27:23;3.23;;;1.53;;
7719;SDS011;3902;49.474;8.616;2022-12-29T06:29:49;1.63;;;1.53;;
7719;SDS011;3902;49.474;8.616;2022-12-29T06:32:15;2.27;;;1.60;;
7719;SDS011;3902;49.474;8.616;2022-12-29T06:34:40;2.60;;;1.57;;
7719;SDS011;3902;49.474;8.616;2022-12-29T06:37:33;2.67;;;1.60;;
7719;SDS011;3902;49.474;8.616;2022-12-29T06:40:00;1.63;;;1.50;;
7719;SDS011;3902;49.474;8.616;2022-12-29T06:42:25;1.83;;;1.40;;
7719;SDS011;3902;49.474;8.616;2022-12-29T06:44:51;2.67;;;1.43;;
7719;SDS011;3902;49.474;8.616;2022-12-29T06:47:17;1.60;;;1.50;;
7719;SDS011;3902;49.474;8.616;2022-12-29T06:49:43;1.63;;;1.33;;
7719;SDS011;3902;49.474;8.616;2022-12-29T06:52:09;1.77;;;1.63;;
7719;SDS011;3902;49.474;8.616;2022-12-29T06:54:35;1.60;;;1.50;;
7719;SDS011;3902;49.474;8.616;2022-12-29T06:57:01;2.03;;;1.50;;
7719;SDS011;3902;49.474;8.616;2022-12-29T06:59:26;2.30;;;1.40;;
7719;SDS011;3902;49.474;8.616;2022-12-29T07:01:52;3.37;;;1.80;;
7719;SDS011;3902;49.474;8.616;2022-12-29T07:04:18;1.77;;;1.67;;
7719;SDS011;3902;49.474;8.616;2022-12-29T07:06:45;2.33;;;1.70;;
7719;SDS011;3902;49.474;8.616;2022-12-29T07:09:34;1.57;;;1.47;;
7719;SDS011;3902;49.474;8.616;2022-12-29T07:12:06;6.13;;;2.10;;
7719;SDS011;3902;49.474;8.616;2022-12-29T07:14:32;2.43;;;2.10;;
7719;SDS011;3902;49.474;8.616;2022-12-29T07:16:58;2.90;;;1.80;;
7719;SDS011;3902;49.474;8.616;2022-12-29T07:19:23;2.13;;;1.80;;
7719;SDS011;3902;49.474;8.616;2022-12-29T07:21:49;2.40;;;1.80;;
7719;SDS011;3902;49.474;8.616;2022-12-29T07:24:14;1.80;;;1.70;;
7719;SDS011;3902;49.474;8.616;2022-12-29T07:26:40;2.83;;;2.20;;
7719;SDS011;3902;49.474;8.616;2022-12-29T07:29:06;2.70;;;2.33;;
7719;SDS011;3902;49.474;8.616;2022-12-29T07:31:32;4.50;;;2.27;;
7719;SDS011;3902;49.474;8.616;2022-12-29T07:33:57;3.00;;;1.90;;
7719;SDS011;3902;49.474;8.616;2022-12-29T07:36:23;2.23;;;2.03;;
7719;SDS011;3902;49.474;8.616;2022-12-29T07:38:48;2.43;;;1.90;;
7719;SDS011;3902;49.474;8.616;2022-12-29T07:41:14;2.83;;;1.70;;
7719;SDS011;3902;49.474;8.616;2022-12-29T07:43:39;2.60;;;1.80;;
7719;SDS011;3902;49.474;8.616;2022-12-29T07:46:05;2.50;;;2.30;;
7719;SDS011;3902;49.474;8.616;2022-12-29T07:48:31;2.70;;;1.83;;
7719;SDS011;3902;49.474;8.616;2022-12-29T07:50:58;4.63;;;2.27;;
7719;SDS011;3902;49.474;8.616;2022-12-29T07:53:23;4.57;;;2.40;;
7719;SDS011;3902;49.474;8.616;2022-12-29T07:55:49;2.33;;;2.13;;
7719;SDS011;3902;49.474;8.616;2022-12-29T07:58:14;2.17;;;1.57;;
7719;SDS011;3902;49.474;8.616;2022-12-29T08:00:41;2.23;;;1.70;;
7719;SDS011;3902;49.474;8.616;2022-12-29T08:03:07;2.20;;;1.97;;
7719;SDS011;3902;49.474;8.616;2022-12-29T08:05:32;3.03;;;2.27;;
7719;SDS011;3902;49.474;8.616;2022-12-29T08:07:59;2.90;;;2.00;;
7719;SDS011;3902;49.474;8.616;2022-12-29T08:10:24;3.93;;;2.27;;
7719;SDS011;3902;49.474;8.616;2022-12-29T08:12:50;1.80;;;1.70;;
7719;SDS011;3902;49.474;8.616;2022-12-29T08:15:16;3.30;;;2.27;;
7719;SDS011;3902;49.474;8.616;2022-12-29T08:17:41;3.30;;;2.23;;
7719;SDS011;3902;49.474;8.616;2022-12-29T08:20:07;3.00;;;2.40;;
7719;SDS011;3902;49.474;8.616;2022-12-29T08:22:33;2.90;;;1.90;;
7719;SDS011;3902;49.474;8.616;2022-12-29T08:24:59;2.77;;;2.20;;
7719;SDS011;3902;49.474;8.616;2022-12-29T08:27:25;2.43;;;1.97;;
7719;SDS011;3902;49.474;8.616;2022-12-29T08:29:51;2.57;;;2.33;;
7719;SDS011;3902;49.474;8.616;2022-12-29T08:32:16;2.70;;;1.80;;
7719;SDS011;3902;49.474;8.616;2022-12-29T08:34:42;3.03;;;2.20;;
7719;SDS011;3902;49.474;8.616;2022-12-29T08:37:07;2.50;;;2.27;;
7719;SDS011;3902;49.474;8.616;2022-12-29T08:39:33;2.30;;;1.87;;
7719;SDS011;3902;49.474;8.616;2022-12-29T08:41:59;2.70;;;1.90;;
7719;SDS011;3902;49.474;8.616;2022-12-29T08:44:24;2.60;;;2.37;;
7719;SDS011;3902;49.474;8.616;2022-12-29T08:46:50;4.00;;;2.40;;
7719;SDS011;3902;49.474;8.616;2022-12-29T08:49:16;4.03;;;2.20;;
7719;SDS011;3902;49.474;8.616;2022-12-29T08:51:41;3.43;;;2.37;;
7719;SDS011;3902;49.474;8.616;2022-12-29T08:54:07;5.33;;;2.90;;
7719;SDS011;3902;49.474;8.616;2022-12-29T08:56:32;3.07;;;2.47;;
7719;SDS011;3902;49.474;8.616;2022-12-29T08:58:58;2.37;;;2.10;;
7719;SDS011;3902;49.474;8.616;2022-12-29T09:01:23;2.90;;;2.40;;
7719;SDS011;3902;49.474;8.616;2022-12-29T09:03:49;2.53;;;2.33;;
7719;SDS011;3902;49.474;8.616;2022-12-29T09:06:15;3.90;;;2.50;;
7719;SDS011;3902;49.474;8.616;2022-12-29T09:08:42;2.50;;;2.30;;
7719;SDS011;3902;49.474;8.616;2022-12-29T09:13:38;3.00;;;2.53;;
7719;SDS011;3902;49.474;8.616;2022-12-29T09:16:04;4.20;;;2.50;;
7719;SDS011;3902;49.474;8.616;2022-12-29T09:18:30;3.40;;;2.80;;
7719;SDS011;3902;49.474;8.616;2022-12-29T09:21:00;2.88;;;2.58;;
7719;SDS011;3902;49.474;8.616;2022-12-29T09:23:27;3.90;;;2.50;;
7719;SDS011;3902;49.474;8.616;2022-12-29T09:25:53;3.93;;;2.70;;
7719;SDS011;3902;49.474;8.616;2022-12-29T09:28:19;3.20;;;2.63;;
7719;SDS011;3902;49.474;8.616;2022-12-29T09:30:46;2.60;;;2.23;;
7719;SDS011;3902;49.474;8.616;2022-12-29T09:33:12;3.13;;;2.33;;
7719;SDS011;3902;49.474;8.616;2022-12-29T09:35:40;3.10;;;2.40;;
7719;SDS011;3902;49.474;8.616;2022-12-29T09:38:10;3.87;;;2.63;;
7719;SDS011;3902;49.474;8.616;2022-12-29T09:40:44;4.20;;;2.20;;
7719;SDS011;3902;49.474;8.616;2022-12-29T09:48:30;4.40;;;2.43;;
7719;SDS011;3902;49.474;8.616;2022-12-29T09:51:00;4.20;;;2.43;;
7719;SDS011;3902;49.474;8.616;2022-12-29T09:53:31;3.30;;;2.30;;
7719;SDS011;3902;49.474;8.616;2022-12-29T09:56:04;5.67;;;2.90;;
7719;SDS011;3902;49.474;8.616;2022-12-29T09:58:39;3.87;;;2.50;;
7719;SDS011;3902;49.474;8.616;2022-12-29T10:01:15;3.43;;;2.17;;
7719;SDS011;3902;49.474;8.616;2022-12-29T10:04:04;3.93;;;2.00;;
7719;SDS011;3902;49.474;8.616;2022-12-29T10:09:50;4.13;;;2.40;;
7719;SDS011;3902;49.474;8.616;2022-12-29T10:17:46;7.57;;;2.40;;
7719;SDS011;3902;49.474;8.616;2022-12-29T10:25:52;2.77;;;2.30;;
7719;SDS011;3902;49.474;8.616;2022-12-29T10:28:21;3.20;;;2.13;;
7719;SDS011;3902;49.474;8.616;2022-12-29T10:30:50;2.23;;;2.03;;
7719;SDS011;3902;49.474;8.616;2022-12-29T10:33:22;2.80;;;1.90;;
7719;SDS011;3902;49.474;8.616;2022-12-29T10:35:54;3.60;;;2.00;;
7719;SDS011;3902;49.474;8.616;2022-12-29T10:41:00;3.20;;;1.80;;
7719;SDS011;3902;49.474;8.616;2022-12-29T10:43:54;3.37;;;2.40;;
7719;SDS011;3902;49.474;8.616;2022-12-29T10:46:21;3.60;;;2.63;;
7719;SDS011;3902;49.474;8.616;2022-12-29T10:48:48;3.30;;;2.30;;
7719;SDS011;3902;49.474;8.616;2022-12-29T10:51:22;3.20;;;2.07;;
7719;SDS011;3902;49.474;8.616;2022-12-29T10:54:10;2.47;;;1.83;;
7719;SDS011;3902;49.474;8.616;2022-12-29T10:56:43;2.87;;;2.00;;
7719;SDS011;3902;49.474;8.616;2022-12-29T11:07:27;2.67;;;2.20;;
7719;SDS011;3902;49.474;8.616;2022-12-29T11:09:53;4.13;;;2.17;;
7719;SDS011;3902;49.474;8.616;2022-12-29T11:12:20;3.67;;;2.13;;
7719;SDS011;3902;49.474;8.616;2022-12-29T11:15:00;3.60;;;2.37;;
7719;SDS011;3902;49.474;8.616;2022-12-29T11:17:42;2.13;;;1.93;;
7719;SDS011;3902;49.474;8.616;2022-12-29T11:22:54;2.40;;;1.90;;
7719;SDS011;3902;49.474;8.616;2022-12-29T11:25:19;2.67;;;1.80;;
7719;SDS011;3902;49.474;8.616;2022-12-29T11:27:54;2.93;;;2.00;;
7719;SDS011;3902;49.474;8.616;2022-12-29T11:30:22;4.60;;;2.03;;
7719;SDS011;3902;49.474;8.616;2022-12-29T11:32:53;3.90;;;2.00;;
7719;SDS011;3902;49.474;8.616;2022-12-29T11:35:30;2.40;;;1.70;;
7719;SDS011;3902;49.474;8.616;2022-12-29T11:38:16;4.50;;;2.30;;
7719;SDS011;3902;49.474;8.616;2022-12-29T11:40:45;3.70;;;1.77;;
7719;SDS011;3902;49.474;8.616;2022-12-29T11:43:18;2.23;;;2.00;;
7719;SDS011;3902;49.474;8.616;2022-12-29T11:45:51;2.00;;;1.80;;
7719;SDS011;3902;49.474;8.616;2022-12-29T11:48:18;3.60;;;2.50;;
7719;SDS011;3902;49.474;8.616;2022-12-29T11:50:52;2.70;;;1.83;;
7719;SDS011;3902;49.474;8.616;2022-12-29T11:53:21;3.40;;;1.87;;
7719;SDS011;3902;49.474;8.616;2022-12-29T11:55:51;2.90;;;1.90;;
7719;SDS011;3902;49.474;8.616;2022-12-29T11:58:18;2.07;;;1.80;;
7719;SDS011;3902;49.474;8.616;2022-12-29T12:00:44;3.07;;;1.80;;
7719;SDS011;3902;49.474;8.616;2022-12-29T12:03:21;2.23;;;1.80;;
7719;SDS011;3902;49.474;8.616;2022-12-29T12:05:54;3.53;;;1.87;;
7719;SDS011;3902;49.474;8.616;2022-12-29T12:08:42;1.97;;;1.60;;
7719;SDS011;3902;49.474;8.616;2022-12-29T12:11:12;3.40;;;1.80;;
7719;SDS011;3902;49.474;8.616;2022-12-29T12:16:39;3.60;;;2.13;;
7719;SDS011;3902;49.474;8.616;2022-12-29T12:24:57;3.13;;;2.13;;
7719;SDS011;3902;49.474;8.616;2022-12-29T12:27:37;3.33;;;1.70;;
7719;SDS011;3902;49.474;8.616;2022-12-29T12:32:57;3.40;;;1.73;;
7719;SDS011;3902;49.474;8.616;2022-12-29T12:38:43;5.73;;;1.87;;
7719;SDS011;3902;49.474;8.616;2022-12-29T12:44:24;4.80;;;1.60;;
7719;SDS011;3902;49.474;8.616;2022-12-29T12:49:51;3.53;;;2.30;;
7719;SDS011;3902;49.474;8.616;2022-12-29T12:52:45;2.60;;;1.83;;
7719;SDS011;3902;49.474;8.616;2022-12-29T12:56:03;1.93;;;1.70;;
7719;SDS011;3902;49.474;8.616;2022-12-29T13:01:10;2.17;;;1.80;;
7719;SDS011;3902;49.474;8.616;2022-12-29T13:03:44;2.37;;;1.67;;
7719;SDS011;3902;49.474;8.616;2022-12-29T13:06:21;3.20;;;2.07;;
7719;SDS011;3902;49.474;8.616;2022-12-29T13:17:59;2.77;;;1.80;;
7719;SDS011;3902;49.474;8.616;2022-12-29T13:20:46;2.43;;;1.50;;
7719;SDS011;3902;49.474;8.616;2022-12-29T13:23:35;2.00;;;1.50;;
7719;SDS011;3902;49.474;8.616;2022-12-29T13:26:14;2.30;;;1.73;;
7719;SDS011;3902;49.474;8.616;2022-12-29T13:28:55;1.67;;;1.43;;
7719;SDS011;3902;49.474;8.616;2022-12-29T13:31:50;2.70;;;1.67;;
7719;SDS011;3902;49.474;8.616;2022-12-29T13:37:40;1.60;;;1.50;;
7719;SDS011;3902;49.474;8.616;2022-12-29T13:40:25;2.57;;;1.50;;
7719;SDS011;3902;49.474;8.616;2022-12-29T13:42:53;1.80;;;1.50;;
7719;SDS011;3902;49.474;8.616;2022-12-29T13:45:21;1.77;;;1.30;;
7719;SDS011;3902;49.474;8.616;2022-12-29T13:47:54;1.60;;;1.30;;
7719;SDS011;3902;49.474;8.616;2022-12-29T13:50:25;3.40;;;1.50;;
7719;SDS011;3902;49.474;8.616;2022-12-29T13:55:49;1.30;;;1.20;;
7719;SDS011;3902;49.474;8.616;2022-12-29T13:58:24;2.27;;;1.57;;
7719;SDS011;3902;49.474;8.616;2022-12-29T14:04:16;3.43;;;1.90;;
7719;SDS011;3902;49.474;8.616;2022-12-29T14:06:48;2.97;;;1.53;;
7719;SDS011;3902;49.474;8.616;2022-12-29T14:12:20;1.80;;;1.40;;
7719;SDS011;3902;49.474;8.616;2022-12-29T14:14:53;1.53;;;1.30;;
7719;SDS011;3902;49.474;8.616;2022-12-29T14:17:19;1.37;;;1.27;;
7719;SDS011;3902;49.474;8.616;2022-12-29T14:19:46;1.20;;;1.00;;
7719;SDS011;3902;49.474;8.616;2022-12-29T14:22:22;2.30;;;1.30;;
7719;SDS011;3902;49.474;8.616;2022-12-29T14:24:49;3.23;;;2.00;;
7719;SDS011;3902;49.474;8.616;2022-12-29T14:34:55;2.13;;;1.70;;
7719;SDS011;3902;49.474;8.616;2022-12-29T14:42:29;3.67;;;1.70;;
7719;SDS011;3902;49.474;8.616;2022-12-29T14:45:05;4.73;;;2.83;;
7719;SDS011;3902;49.474;8.616;2022-12-29T14:47:38;4.10;;;1.97;;
7719;SDS011;3902;49.474;8.616;2022-12-29T14:55:36;2.17;;;1.70;;
7719;SDS011;3902;49.474;8.616;2022-12-29T14:58:18;2.07;;;1.70;;
7719;SDS011;3902;49.474;8.616;2022-12-29T15:00:47;2.80;;;1.40;;
7719;SDS011;3902;49.474;8.616;2022-12-29T15:05:51;2.43;;;1.30;;
7719;SDS011;3902;49.474;8.616;2022-12-29T15:08:30;4.07;;;2.43;;
7719;SDS011;3902;49.474;8.616;2022-12-29T15:11:03;5.03;;;2.27;;
7719;SDS011;3902;49.474;8.616;2022-12-29T15:13:42;2.10;;;1.80;;
7719;SDS011;3902;49.474;8.616;2022-12-29T15:19:04;2.03;;;1.83;;
7719;SDS011;3902;49.474;8.616;2022-12-29T15:21:46;1.90;;;1.57;;
7719;SDS011;3902;49.474;8.616;2022-12-29T15:24:12;1.50;;;1.40;;
7719;SDS011;3902;49.474;8.616;2022-12-29T15:26:40;1.50;;;1.40;;
7719;SDS011;3902;49.474;8.616;2022-12-29T15:32:16;3.67;;;2.00;;
7719;SDS011;3902;49.474;8.616;2022-12-29T15:34:53;2.10;;;1.70;;
7719;SDS011;3902;49.474;8.616;2022-12-29T15:37:25;3.07;;;1.63;;
7719;SDS011;3902;49.474;8.616;2022-12-29T15:39:58;2.90;;;1.70;;
7719;SDS011;3902;49.474;8.616;2022-12-29T15:45:05;2.93;;;1.87;;
7719;SDS011;3902;49.474;8.616;2022-12-29T15:47:35;3.80;;;2.23;;
7719;SDS011;3902;49.474;8.616;2022-12-29T15:50:05;4.23;;;2.60;;
7719;SDS011;3902;49.474;8.616;2022-12-29T15:52:39;2.47;;;1.97;;
7719;SDS011;3902;49.474;8.616;2022-12-29T15:55:05;1.70;;;1.60;;
7719;SDS011;3902;49.474;8.616;2022-12-29T15:57:46;2.40;;;1.50;;
7719;SDS011;3902;49.474;8.616;2022-12-29T16:00:46;2.67;;;1.40;;
7719;SDS011;3902;49.474;8.616;2022-12-29T16:03:05;3.47;;;1.80;;
7719;SDS011;3902;49.474;8.616;2022-12-29T16:05:37;2.90;;;1.50;;
7719;SDS011;3902;49.474;8.616;2022-12-29T16:08:20;3.97;;;1.90;;
7719;SDS011;3902;49.474;8.616;2022-12-29T16:10:52;4.03;;;2.00;;
7719;SDS011;3902;49.474;8.616;2022-12-29T16:13:34;2.77;;;1.73;;
7719;SDS011;3902;49.474;8.616;2022-12-29T16:16:13;3.70;;;2.10;;
7719;SDS011;3902;49.474;8.616;2022-12-29T16:18:46;2.17;;;1.97;;
7719;SDS011;3902;49.474;8.616;2022-12-29T16:21:16;2.73;;;2.10;;
7719;SDS011;3902;49.474;8.616;2022-12-29T16:23:46;2.17;;;1.97;;
7719;SDS011;3902;49.474;8.616;2022-12-29T16:26:18;2.50;;;2.30;;
7719;SDS011;3902;49.474;8.616;2022-12-29T16:28:59;2.80;;;2.10;;
7719;SDS011;3902;49.474;8.616;2022-12-29T16:39:54;2.90;;;2.23;;
7719;SDS011;3902;49.474;8.616;2022-12-29T16:42:33;3.10;;;2.60;;
7719;SDS011;3902;49.474;8.616;2022-12-29T16:45:57;3.87;;;2.70;;
7719;SDS011;3902;49.474;8.616;2022-12-29T16:50:30;2.87;;;2.40;;
7719;SDS011;3902;49.474;8.616;2022-12-29T16:52:57;3.10;;;2.27;;
7719;SDS011;3902;49.474;8.616;2022-12-29T16:55:23;3.90;;;2.57;;
7719;SDS011;3902;49.474;8.616;2022-12-29T16:57:49;3.73;;;2.60;;
7719;SDS011;3902;49.474;8.616;2022-12-29T17:00:21;2.37;;;2.07;;
7719;SDS011;3902;49.474;8.616;2022-12-29T17:02:49;2.50;;;1.97;;
7719;SDS011;3902;49.474;8.616;2022-12-29T17:05:19;3.00;;;2.20;;
7719;SDS011;3902;49.474;8.616;2022-12-29T17:07:44;2.77;;;2.10;;
7719;SDS011;3902;49.474;8.616;2022-12-29T17:10:11;4.03;;;2.20;;
7719;SDS011;3902;49.474;8.616;2022-12-29T17:12:38;3.20;;;2.20;;
7719;SDS011;3902;49.474;8.616;2022-12-29T17:15:09;1.77;;;1.67;;
7719;SDS011;3902;49.474;8.616;2022-12-29T17:17:46;3.87;;;2.53;;
7719;SDS011;3902;49.474;8.616;2022-12-29T17:20:17;3.07;;;2.20;;
7719;SDS011;3902;49.474;8.616;2022-12-29T17:22:45;3.53;;;2.30;;
7719;SDS011;3902;49.474;8.616;2022-12-29T17:25:11;2.20;;;1.50;;
7719;SDS011;3902;49.474;8.616;2022-12-29T17:30:16;1.70;;;1.50;;
7719;SDS011;3902;49.474;8.616;2022-12-29T17:32:51;1.93;;;1.50;;
7719;SDS011;3902;49.474;8.616;2022-12-29T17:35:19;3.00;;;1.93;;
7719;SDS011;3902;49.474;8.616;2022-12-29T17:37:45;3.23;;;1.63;;
7719;SDS011;3902;49.474;8.616;2022-12-29T17:40:13;1.77;;;1.50;;
7719;SDS011;3902;49.474;8.616;2022-12-29T17:42:45;2.13;;;1.70;;
7719;SDS011;3902;49.474;8.616;2022-12-29T17:45:13;3.60;;;1.80;;
7719;SDS011;3902;49.474;8.616;2022-12-29T17:47:43;2.10;;;1.70;;
7719;SDS011;3902;49.474;8.616;2022-12-29T17:50:13;3.77;;;2.50;;
7719;SDS011;3902;49.474;8.616;2022-12-29T17:52:41;3.07;;;1.90;;
7719;SDS011;3902;49.474;8.616;2022-12-29T17:55:12;2.47;;;2.20;;
7719;SDS011;3902;49.474;8.616;2022-12-29T17:57:41;2.30;;;2.10;;
7719;SDS011;3902;49.474;8.616;2022-12-29T18:00:08;2.77;;;1.93;;